sensor_id;sensor_type;location;lat;lon;timestamp;temperature;humidity
33717;DHT22;20046;50.746;7.072;2022-10-01T00:00:55;12.30;99.90
33717;DHT22;20046;50.746;7.072;2022-10-01T00:03:25;12.30;99.90
33717;DHT22;20046;50.746;7.072;2022-10-01T00:05:59;12.40;99.90
33717;DHT22;20046;50.746;7.072;2022-10-01T00:08:25;12.50;99.90
33717;DHT22;20046;50.746;7.072;2022-10-01T00:10:51;12.60;99.90
33717;DHT22;20046;50.746;7.072;2022-10-01T00:13:17;12.70;99.90
33717;DHT22;20046;50.746;7.072;2022-10-01T00:15:43;12.70;99.90
33717;DHT22;20046;50.746;7.072;2022-10-01T00:18:09;12.70;99.90
33717;DHT22;20046;50.746;7.072;2022-10-01T00:20:38;12.70;99.90
33717;DHT22;20046;50.746;7.072;2022-10-01T00:23:04;12.80;99.90
33717;DHT22;20046;50.746;7.072;2022-10-01T00:25:30;12.80;99.90
33717;DHT22;20046;50.746;7.072;2022-10-01T00:27:55;12.80;99.90
33717;DHT22;20046;50.746;7.072;2022-10-01T00:30:21;12.80;99.90
33717;DHT22;20046;50.746;7.072;2022-10-01T00:32:46;12.90;99.90
33717;DHT22;20046;50.746;7.072;2022-10-01T00:35:12;12.90;99.90
33717;DHT22;20046;50.746;7.072;2022-10-01T00:37:38;13.00;99.90
33717;DHT22;20046;50.746;7.072;2022-10-01T00:40:05;13.00;99.90
33717;DHT22;20046;50.746;7.072;2022-10-01T00:42:31;13.00;99.90
33717;DHT22;20046;50.746;7.072;2022-10-01T00:44:57;13.10;99.90
33717;DHT22;20046;50.746;7.072;2022-10-01T00:47:39;12.70;99.90
33717;DHT22;20046;50.746;7.072;2022-10-01T00:50:14;12.60;99.90
33717;DHT22;20046;50.746;7.072;2022-10-01T00:52:44;12.50;99.90
33717;DHT22;20046;50.746;7.072;2022-10-01T00:55:19;12.60;99.90
33717;DHT22;20046;50.746;7.072;2022-10-01T00:57:46;12.60;99.90
33717;DHT22;20046;50.746;7.072;2022-10-01T01:00:13;12.60;99.90
33717;DHT22;20046;50.746;7.072;2022-10-01T01:02:40;12.60;99.90
33717;DHT22;20046;50.746;7.072;2022-10-01T01:05:06;12.60;99.90
33717;DHT22;20046;50.746;7.072;2022-10-01T01:07:33;12.60;99.90
33717;DHT22;20046;50.746;7.072;2022-10-01T01:10:01;12.50;99.90
33717;DHT22;20046;50.746;7.072;2022-10-01T01:15:13;12.40;99.90
33717;DHT22;20046;50.746;7.072;2022-10-01T01:18:03;12.30;99.90
33717;DHT22;20046;50.746;7.072;2022-10-01T01:26:11;11.90;99.90
33717;DHT22;20046;50.746;7.072;2022-10-01T01:28:41;11.80;99.90
33717;DHT22;20046;50.746;7.072;2022-10-01T01:31:12;11.70;99.90
33717;DHT22;20046;50.746;7.072;2022-10-01T01:33:41;11.70;99.90
33717;DHT22;20046;50.746;7.072;2022-10-01T01:36:17;11.60;99.90
33717;DHT22;20046;50.746;7.072;2022-10-01T01:38:57;11.50;99.90
33717;DHT22;20046;50.746;7.072;2022-10-01T01:41:26;11.30;99.90
33717;DHT22;20046;50.746;7.072;2022-10-01T01:43:56;11.20;99.90
33717;DHT22;20046;50.746;7.072;2022-10-01T01:46:26;11.20;99.90
33717;DHT22;20046;50.746;7.072;2022-10-01T01:48:57;11.10;99.90
33717;DHT22;20046;50.746;7.072;2022-10-01T01:52:04;11.00;99.90
33717;DHT22;20046;50.746;7.072;2022-10-01T01:54:35;10.80;99.90
33717;DHT22;20046;50.746;7.072;2022-10-01T01:57:02;10.70;99.90
33717;DHT22;20046;50.746;7.072;2022-10-01T01:59:30;10.60;99.90
33717;DHT22;20046;50.746;7.072;2022-10-01T02:01:56;10.60;99.90
33717;DHT22;20046;50.746;7.072;2022-10-01T02:04:38;10.60;99.90
33717;DHT22;20046;50.746;7.072;2022-10-01T02:07:25;10.60;99.90
33717;DHT22;20046;50.746;7.072;2022-10-01T02:15:34;10.60;99.90
33717;DHT22;20046;50.746;7.072;2022-10-01T02:18:25;10.60;99.90
33717;DHT22;20046;50.746;7.072;2022-10-01T02:23:35;10.50;99.90
33717;DHT22;20046;50.746;7.072;2022-10-01T02:26:09;10.50;99.90
33717;DHT22;20046;50.746;7.072;2022-10-01T02:28:36;10.50;99.90
33717;DHT22;20046;50.746;7.072;2022-10-01T02:31:04;10.50;99.90
33717;DHT22;20046;50.746;7.072;2022-10-01T02:33:32;10.50;99.90
33717;DHT22;20046;50.746;7.072;2022-10-01T02:36:00;10.50;99.90
33717;DHT22;20046;50.746;7.072;2022-10-01T02:38:28;10.50;99.90
33717;DHT22;20046;50.746;7.072;2022-10-01T02:40:57;10.50;99.90
33717;DHT22;20046;50.746;7.072;2022-10-01T02:43:29;10.50;99.90
33717;DHT22;20046;50.746;7.072;2022-10-01T02:46:02;10.50;99.90
33717;DHT22;20046;50.746;7.072;2022-10-01T02:48:31;10.50;99.90
33717;DHT22;20046;50.746;7.072;2022-10-01T02:51:08;10.50;99.90
33717;DHT22;20046;50.746;7.072;2022-10-01T02:53:42;10.50;99.90
33717;DHT22;20046;50.746;7.072;2022-10-01T02:56:09;10.50;99.90
33717;DHT22;20046;50.746;7.072;2022-10-01T02:58:36;10.50;99.90
33717;DHT22;20046;50.746;7.072;2022-10-01T03:01:02;10.50;99.90
33717;DHT22;20046;50.746;7.072;2022-10-01T03:03:28;10.50;99.90
33717;DHT22;20046;50.746;7.072;2022-10-01T03:05:55;10.50;99.90
33717;DHT22;20046;50.746;7.072;2022-10-01T03:08:21;10.50;99.90
33717;DHT22;20046;50.746;7.072;2022-10-01T03:10:47;10.50;99.90
33717;DHT22;20046;50.746;7.072;2022-10-01T03:13:14;10.50;99.90
33717;DHT22;20046;50.746;7.072;2022-10-01T03:15:45;10.50;99.90
33717;DHT22;20046;50.746;7.072;2022-10-01T03:18:10;10.50;99.90
33717;DHT22;20046;50.746;7.072;2022-10-01T03:20:36;10.50;99.90
33717;DHT22;20046;50.746;7.072;2022-10-01T03:23:02;10.50;99.90
33717;DHT22;20046;50.746;7.072;2022-10-01T03:25:27;10.50;99.90
33717;DHT22;20046;50.746;7.072;2022-10-01T03:27:53;10.50;99.90
33717;DHT22;20046;50.746;7.072;2022-10-01T03:30:18;10.50;99.90
33717;DHT22;20046;50.746;7.072;2022-10-01T03:32:44;10.50;99.90
33717;DHT22;20046;50.746;7.072;2022-10-01T03:35:10;10.50;99.90
33717;DHT22;20046;50.746;7.072;2022-10-01T03:37:36;10.50;99.90
33717;DHT22;20046;50.746;7.072;2022-10-01T03:40:02;10.50;99.90
33717;DHT22;20046;50.746;7.072;2022-10-01T03:42:28;10.60;99.90
33717;DHT22;20046;50.746;7.072;2022-10-01T03:44:54;10.60;99.90
33717;DHT22;20046;50.746;7.072;2022-10-01T03:47:20;10.60;99.90
33717;DHT22;20046;50.746;7.072;2022-10-01T03:49:48;10.60;99.90
33717;DHT22;20046;50.746;7.072;2022-10-01T03:52:14;10.60;99.90
33717;DHT22;20046;50.746;7.072;2022-10-01T03:54:39;10.60;99.90
33717;DHT22;20046;50.746;7.072;2022-10-01T03:57:05;10.60;99.90
33717;DHT22;20046;50.746;7.072;2022-10-01T03:59:31;10.60;99.90
33717;DHT22;20046;50.746;7.072;2022-10-01T04:01:56;10.60;99.90
33717;DHT22;20046;50.746;7.072;2022-10-01T04:04:22;10.60;99.90
33717;DHT22;20046;50.746;7.072;2022-10-01T04:06:47;10.60;99.90
33717;DHT22;20046;50.746;7.072;2022-10-01T04:09:13;10.60;99.90
33717;DHT22;20046;50.746;7.072;2022-10-01T04:11:38;10.50;99.90
33717;DHT22;20046;50.746;7.072;2022-10-01T04:14:04;10.50;99.90
33717;DHT22;20046;50.746;7.072;2022-10-01T04:16:30;10.60;99.90
33717;DHT22;20046;50.746;7.072;2022-10-01T04:18:59;10.60;99.90
33717;DHT22;20046;50.746;7.072;2022-10-01T04:21:24;10.60;99.90
33717;DHT22;20046;50.746;7.072;2022-10-01T04:23:50;10.60;99.90
33717;DHT22;20046;50.746;7.072;2022-10-01T04:26:17;10.60;99.90
33717;DHT22;20046;50.746;7.072;2022-10-01T04:28:43;10.60;99.90
33717;DHT22;20046;50.746;7.072;2022-10-01T04:31:11;10.60;99.90
33717;DHT22;20046;50.746;7.072;2022-10-01T04:33:49;10.50;99.90
33717;DHT22;20046;50.746;7.072;2022-10-01T04:36:15;10.60;99.90
33717;DHT22;20046;50.746;7.072;2022-10-01T04:38:41;10.60;99.90
33717;DHT22;20046;50.746;7.072;2022-10-01T04:41:07;10.60;99.90
33717;DHT22;20046;50.746;7.072;2022-10-01T04:43:33;10.50;99.90
33717;DHT22;20046;50.746;7.072;2022-10-01T04:45:59;10.50;99.90
33717;DHT22;20046;50.746;7.072;2022-10-01T04:48:24;10.50;99.90
33717;DHT22;20046;50.746;7.072;2022-10-01T04:50:50;10.50;99.90
33717;DHT22;20046;50.746;7.072;2022-10-01T04:53:16;10.50;99.90
33717;DHT22;20046;50.746;7.072;2022-10-01T04:55:42;10.40;99.90
33717;DHT22;20046;50.746;7.072;2022-10-01T04:58:08;10.40;99.90
33717;DHT22;20046;50.746;7.072;2022-10-01T05:00:34;10.40;99.90
33717;DHT22;20046;50.746;7.072;2022-10-01T05:02:59;10.40;99.90
33717;DHT22;20046;50.746;7.072;2022-10-01T05:05:25;10.40;99.90
33717;DHT22;20046;50.746;7.072;2022-10-01T05:07:53;10.40;99.90
33717;DHT22;20046;50.746;7.072;2022-10-01T05:10:20;10.40;99.90
33717;DHT22;20046;50.746;7.072;2022-10-01T05:12:47;10.40;99.90
33717;DHT22;20046;50.746;7.072;2022-10-01T05:15:14;10.40;99.90
33717;DHT22;20046;50.746;7.072;2022-10-01T05:17:40;10.40;99.90
33717;DHT22;20046;50.746;7.072;2022-10-01T05:20:07;10.40;99.90
33717;DHT22;20046;50.746;7.072;2022-10-01T05:22:34;10.50;99.90
33717;DHT22;20046;50.746;7.072;2022-10-01T05:25:00;10.40;99.90
33717;DHT22;20046;50.746;7.072;2022-10-01T05:27:26;10.50;99.90
33717;DHT22;20046;50.746;7.072;2022-10-01T05:29:52;10.50;99.90
33717;DHT22;20046;50.746;7.072;2022-10-01T05:32:18;10.50;99.90
33717;DHT22;20046;50.746;7.072;2022-10-01T05:34:44;10.50;99.90
33717;DHT22;20046;50.746;7.072;2022-10-01T05:37:10;10.50;99.90
33717;DHT22;20046;50.746;7.072;2022-10-01T05:39:36;10.50;99.90
33717;DHT22;20046;50.746;7.072;2022-10-01T05:42:02;10.50;99.90
33717;DHT22;20046;50.746;7.072;2022-10-01T05:44:28;10.50;99.90
33717;DHT22;20046;50.746;7.072;2022-10-01T05:46:57;10.50;99.90
33717;DHT22;20046;50.746;7.072;2022-10-01T05:49:23;10.60;99.90
33717;DHT22;20046;50.746;7.072;2022-10-01T05:51:49;10.60;99.90
33717;DHT22;20046;50.746;7.072;2022-10-01T05:54:15;10.60;99.90
33717;DHT22;20046;50.746;7.072;2022-10-01T05:56:44;10.60;99.90
33717;DHT22;20046;50.746;7.072;2022-10-01T05:59:09;10.70;99.90
33717;DHT22;20046;50.746;7.072;2022-10-01T06:01:36;10.70;99.90
33717;DHT22;20046;50.746;7.072;2022-10-01T06:04:02;10.70;99.90
33717;DHT22;20046;50.746;7.072;2022-10-01T06:06:28;10.70;99.90
33717;DHT22;20046;50.746;7.072;2022-10-01T06:08:54;10.80;99.90
33717;DHT22;20046;50.746;7.072;2022-10-01T06:11:20;10.80;99.90
33717;DHT22;20046;50.746;7.072;2022-10-01T06:13:48;10.80;99.90
33717;DHT22;20046;50.746;7.072;2022-10-01T06:16:15;10.90;99.90
33717;DHT22;20046;50.746;7.072;2022-10-01T06:18:41;10.90;99.90
33717;DHT22;20046;50.746;7.072;2022-10-01T06:21:08;11.00;99.90
33717;DHT22;20046;50.746;7.072;2022-10-01T06:23:34;11.00;99.90
33717;DHT22;20046;50.746;7.072;2022-10-01T06:26:02;11.10;99.90
33717;DHT22;20046;50.746;7.072;2022-10-01T06:28:30;11.10;99.90
33717;DHT22;20046;50.746;7.072;2022-10-01T06:30:55;11.20;99.90
33717;DHT22;20046;50.746;7.072;2022-10-01T06:33:21;11.20;99.90
33717;DHT22;20046;50.746;7.072;2022-10-01T06:35:48;11.20;99.90
33717;DHT22;20046;50.746;7.072;2022-10-01T06:38:16;11.30;99.90
33717;DHT22;20046;50.746;7.072;2022-10-01T06:40:49;11.30;99.90
33717;DHT22;20046;50.746;7.072;2022-10-01T06:43:14;11.30;99.90
33717;DHT22;20046;50.746;7.072;2022-10-01T06:45:40;11.40;99.90
33717;DHT22;20046;50.746;7.072;2022-10-01T06:48:07;11.40;99.90
33717;DHT22;20046;50.746;7.072;2022-10-01T06:50:36;11.50;99.90
33717;DHT22;20046;50.746;7.072;2022-10-01T06:53:01;11.50;99.90
33717;DHT22;20046;50.746;7.072;2022-10-01T06:55:29;11.50;99.90
33717;DHT22;20046;50.746;7.072;2022-10-01T06:58:03;11.40;99.90
33717;DHT22;20046;50.746;7.072;2022-10-01T07:00:32;11.40;99.90
33717;DHT22;20046;50.746;7.072;2022-10-01T07:02:59;11.40;99.90
33717;DHT22;20046;50.746;7.072;2022-10-01T07:05:26;11.30;99.90
33717;DHT22;20046;50.746;7.072;2022-10-01T07:07:52;11.30;99.90
33717;DHT22;20046;50.746;7.072;2022-10-01T07:10:19;11.30;99.90
33717;DHT22;20046;50.746;7.072;2022-10-01T07:12:46;11.30;99.90
33717;DHT22;20046;50.746;7.072;2022-10-01T07:15:13;11.40;99.90
33717;DHT22;20046;50.746;7.072;2022-10-01T07:17:47;11.50;99.90
33717;DHT22;20046;50.746;7.072;2022-10-01T07:20:14;11.50;99.90
33717;DHT22;20046;50.746;7.072;2022-10-01T07:22:42;11.50;99.90
33717;DHT22;20046;50.746;7.072;2022-10-01T07:25:08;11.60;99.90
33717;DHT22;20046;50.746;7.072;2022-10-01T07:27:34;11.70;99.90
33717;DHT22;20046;50.746;7.072;2022-10-01T07:29:59;11.80;99.90
33717;DHT22;20046;50.746;7.072;2022-10-01T07:32:25;12.00;99.90
33717;DHT22;20046;50.746;7.072;2022-10-01T07:34:51;12.10;99.90
33717;DHT22;20046;50.746;7.072;2022-10-01T07:37:16;12.30;99.90
33717;DHT22;20046;50.746;7.072;2022-10-01T07:39:42;12.40;99.90
33717;DHT22;20046;50.746;7.072;2022-10-01T07:42:08;12.60;99.90
33717;DHT22;20046;50.746;7.072;2022-10-01T07:44:33;12.70;99.90
33717;DHT22;20046;50.746;7.072;2022-10-01T07:46:59;12.70;99.90
33717;DHT22;20046;50.746;7.072;2022-10-01T07:49:25;12.80;99.90
33717;DHT22;20046;50.746;7.072;2022-10-01T07:51:52;12.90;99.90
33717;DHT22;20046;50.746;7.072;2022-10-01T07:54:19;12.90;99.90
33717;DHT22;20046;50.746;7.072;2022-10-01T07:56:46;13.00;99.90
33717;DHT22;20046;50.746;7.072;2022-10-01T07:59:12;13.00;99.90
33717;DHT22;20046;50.746;7.072;2022-10-01T08:01:38;13.10;99.90
33717;DHT22;20046;50.746;7.072;2022-10-01T08:04:04;13.10;99.90
33717;DHT22;20046;50.746;7.072;2022-10-01T08:06:51;13.10;99.90
33717;DHT22;20046;50.746;7.072;2022-10-01T08:09:18;13.20;99.90
33717;DHT22;20046;50.746;7.072;2022-10-01T08:11:44;13.30;99.90
33717;DHT22;20046;50.746;7.072;2022-10-01T08:14:10;13.30;99.90
33717;DHT22;20046;50.746;7.072;2022-10-01T08:16:37;13.30;99.90
33717;DHT22;20046;50.746;7.072;2022-10-01T08:19:04;13.30;99.90
33717;DHT22;20046;50.746;7.072;2022-10-01T08:21:32;13.40;99.90
33717;DHT22;20046;50.746;7.072;2022-10-01T08:24:00;13.50;99.90
33717;DHT22;20046;50.746;7.072;2022-10-01T08:26:26;13.60;99.90
33717;DHT22;20046;50.746;7.072;2022-10-01T08:28:51;13.60;99.90
33717;DHT22;20046;50.746;7.072;2022-10-01T08:31:17;13.70;99.90
33717;DHT22;20046;50.746;7.072;2022-10-01T08:33:42;13.70;99.90
33717;DHT22;20046;50.746;7.072;2022-10-01T08:36:08;13.70;99.90
33717;DHT22;20046;50.746;7.072;2022-10-01T08:38:35;13.80;99.90
33717;DHT22;20046;50.746;7.072;2022-10-01T08:41:11;13.80;99.90
33717;DHT22;20046;50.746;7.072;2022-10-01T08:43:40;13.80;99.90
33717;DHT22;20046;50.746;7.072;2022-10-01T08:46:15;13.90;99.90
33717;DHT22;20046;50.746;7.072;2022-10-01T08:51:45;13.90;99.90
33717;DHT22;20046;50.746;7.072;2022-10-01T08:56:36;14.10;99.90
33717;DHT22;20046;50.746;7.072;2022-10-01T09:01:45;14.20;99.90
33717;DHT22;20046;50.746;7.072;2022-10-01T09:04:11;14.20;99.90
33717;DHT22;20046;50.746;7.072;2022-10-01T09:06:36;14.20;99.90
33717;DHT22;20046;50.746;7.072;2022-10-01T09:11:49;14.20;99.90
33717;DHT22;20046;50.746;7.072;2022-10-01T09:25:21;14.50;99.90
33717;DHT22;20046;50.746;7.072;2022-10-01T09:27:47;14.60;99.90
33717;DHT22;20046;50.746;7.072;2022-10-01T09:30:21;14.70;99.90
33717;DHT22;20046;50.746;7.072;2022-10-01T09:32:55;14.80;99.90
33717;DHT22;20046;50.746;7.072;2022-10-01T09:35:48;14.90;99.90
33717;DHT22;20046;50.746;7.072;2022-10-01T09:40:51;14.90;99.90
33717;DHT22;20046;50.746;7.072;2022-10-01T09:43:24;14.90;99.90
33717;DHT22;20046;50.746;7.072;2022-10-01T09:45:51;14.90;99.90
33717;DHT22;20046;50.746;7.072;2022-10-01T09:51:09;15.00;99.90
33717;DHT22;20046;50.746;7.072;2022-10-01T09:56:47;15.60;99.90
33717;DHT22;20046;50.746;7.072;2022-10-01T09:59:19;15.80;99.90
33717;DHT22;20046;50.746;7.072;2022-10-01T10:01:49;15.80;99.90
33717;DHT22;20046;50.746;7.072;2022-10-01T10:04:20;15.90;99.90
33717;DHT22;20046;50.746;7.072;2022-10-01T10:06:51;16.30;99.90
33717;DHT22;20046;50.746;7.072;2022-10-01T10:09:28;16.60;99.90
33717;DHT22;20046;50.746;7.072;2022-10-01T10:11:57;17.00;99.90
33717;DHT22;20046;50.746;7.072;2022-10-01T10:14:30;17.30;99.90
33717;DHT22;20046;50.746;7.072;2022-10-01T10:16:56;17.60;99.90
33717;DHT22;20046;50.746;7.072;2022-10-01T10:19:29;17.70;99.90
33717;DHT22;20046;50.746;7.072;2022-10-01T10:22:09;17.80;99.90
33717;DHT22;20046;50.746;7.072;2022-10-01T10:24:36;17.90;99.90
33717;DHT22;20046;50.746;7.072;2022-10-01T10:27:05;17.90;99.90
33717;DHT22;20046;50.746;7.072;2022-10-01T10:29:33;17.90;99.90
33717;DHT22;20046;50.746;7.072;2022-10-01T10:32:06;18.00;99.90
33717;DHT22;20046;50.746;7.072;2022-10-01T10:34:37;18.30;99.90
33717;DHT22;20046;50.746;7.072;2022-10-01T10:37:17;18.30;99.90
33717;DHT22;20046;50.746;7.072;2022-10-01T10:39:49;18.10;99.90
33717;DHT22;20046;50.746;7.072;2022-10-01T10:42:17;18.00;99.90
33717;DHT22;20046;50.746;7.072;2022-10-01T10:44:51;17.80;99.90
33717;DHT22;20046;50.746;7.072;2022-10-01T10:47:20;17.70;99.90
33717;DHT22;20046;50.746;7.072;2022-10-01T10:49:55;17.60;99.90
33717;DHT22;20046;50.746;7.072;2022-10-01T10:52:29;17.40;99.90
33717;DHT22;20046;50.746;7.072;2022-10-01T10:54:59;17.20;99.90
33717;DHT22;20046;50.746;7.072;2022-10-01T10:57:31;17.20;99.90
33717;DHT22;20046;50.746;7.072;2022-10-01T11:00:00;17.30;99.90
33717;DHT22;20046;50.746;7.072;2022-10-01T11:02:29;17.40;99.90
33717;DHT22;20046;50.746;7.072;2022-10-01T11:05:10;17.70;99.90
33717;DHT22;20046;50.746;7.072;2022-10-01T11:07:41;18.00;99.90
33717;DHT22;20046;50.746;7.072;2022-10-01T11:10:38;18.40;99.90
33717;DHT22;20046;50.746;7.072;2022-10-01T11:13:25;18.80;99.90
33717;DHT22;20046;50.746;7.072;2022-10-01T11:18:57;20.00;99.90
33717;DHT22;20046;50.746;7.072;2022-10-01T11:30:04;26.60;99.40
33717;DHT22;20046;50.746;7.072;2022-10-01T11:32:37;27.40;95.00
33717;DHT22;20046;50.746;7.072;2022-10-01T11:35:13;27.50;93.70
33717;DHT22;20046;50.746;7.072;2022-10-01T11:40:44;28.00;91.50
33717;DHT22;20046;50.746;7.072;2022-10-01T11:45:55;26.40;91.60
33717;DHT22;20046;50.746;7.072;2022-10-01T11:48:28;26.90;90.50
33717;DHT22;20046;50.746;7.072;2022-10-01T11:51:01;27.80;90.40
33717;DHT22;20046;50.746;7.072;2022-10-01T11:53:32;28.10;87.20
33717;DHT22;20046;50.746;7.072;2022-10-01T11:56:19;27.80;87.50
33717;DHT22;20046;50.746;7.072;2022-10-01T11:59:14;28.20;87.40
33717;DHT22;20046;50.746;7.072;2022-10-01T12:16:03;28.20;87.00
33717;DHT22;20046;50.746;7.072;2022-10-01T12:18:46;29.10;83.50
33717;DHT22;20046;50.746;7.072;2022-10-01T12:21:25;29.60;81.70
33717;DHT22;20046;50.746;7.072;2022-10-01T12:23:56;30.40;78.60
33717;DHT22;20046;50.746;7.072;2022-10-01T12:32:16;29.90;73.10
33717;DHT22;20046;50.746;7.072;2022-10-01T12:40:40;28.40;74.40
33717;DHT22;20046;50.746;7.072;2022-10-01T12:51:47;22.50;87.00
33717;DHT22;20046;50.746;7.072;2022-10-01T13:00:06;23.80;87.70
33717;DHT22;20046;50.746;7.072;2022-10-01T13:05:15;25.90;81.30
33717;DHT22;20046;50.746;7.072;2022-10-01T13:13:25;28.80;72.00
33717;DHT22;20046;50.746;7.072;2022-10-01T13:16:08;30.10;69.80
33717;DHT22;20046;50.746;7.072;2022-10-01T13:24:17;33.10;66.60
33717;DHT22;20046;50.746;7.072;2022-10-01T13:32:31;32.00;65.50
33717;DHT22;20046;50.746;7.072;2022-10-01T13:35:00;32.70;63.60
33717;DHT22;20046;50.746;7.072;2022-10-01T13:39:55;34.00;59.90
33717;DHT22;20046;50.746;7.072;2022-10-01T13:42:26;34.10;59.70
33717;DHT22;20046;50.746;7.072;2022-10-01T13:44:57;33.10;58.60
33717;DHT22;20046;50.746;7.072;2022-10-01T13:47:24;32.10;59.60
33717;DHT22;20046;50.746;7.072;2022-10-01T13:50:01;31.00;61.70
33717;DHT22;20046;50.746;7.072;2022-10-01T13:52:29;29.60;63.00
33717;DHT22;20046;50.746;7.072;2022-10-01T13:54:57;27.90;65.40
33717;DHT22;20046;50.746;7.072;2022-10-01T13:57:35;26.70;67.20
33717;DHT22;20046;50.746;7.072;2022-10-01T14:02:41;24.90;69.50
33717;DHT22;20046;50.746;7.072;2022-10-01T14:07:42;27.10;69.10
33717;DHT22;20046;50.746;7.072;2022-10-01T14:10:12;28.30;68.50
33717;DHT22;20046;50.746;7.072;2022-10-01T14:12:41;29.40;67.80
33717;DHT22;20046;50.746;7.072;2022-10-01T14:15:37;30.00;66.10
33717;DHT22;20046;50.746;7.072;2022-10-01T14:18:23;30.10;65.40
33717;DHT22;20046;50.746;7.072;2022-10-01T14:28:59;28.80;63.60
33717;DHT22;20046;50.746;7.072;2022-10-01T14:31:43;26.70;64.40
33717;DHT22;20046;50.746;7.072;2022-10-01T14:34:19;25.10;67.10
33717;DHT22;20046;50.746;7.072;2022-10-01T14:36:53;23.60;69.20
33717;DHT22;20046;50.746;7.072;2022-10-01T14:41:47;24.10;71.80
33717;DHT22;20046;50.746;7.072;2022-10-01T14:44:29;24.40;70.70
33717;DHT22;20046;50.746;7.072;2022-10-01T14:46:58;24.60;70.80
33717;DHT22;20046;50.746;7.072;2022-10-01T14:49:28;24.50;70.90
33717;DHT22;20046;50.746;7.072;2022-10-01T14:52:04;23.50;71.60
33717;DHT22;20046;50.746;7.072;2022-10-01T14:54:44;22.50;74.30
33717;DHT22;20046;50.746;7.072;2022-10-01T14:57:33;21.90;75.40
33717;DHT22;20046;50.746;7.072;2022-10-01T15:00:02;21.70;77.00
33717;DHT22;20046;50.746;7.072;2022-10-01T15:02:32;21.60;76.40
33717;DHT22;20046;50.746;7.072;2022-10-01T15:04:57;21.60;77.30
33717;DHT22;20046;50.746;7.072;2022-10-01T15:07:26;21.70;77.10
33717;DHT22;20046;50.746;7.072;2022-10-01T15:09:52;21.70;76.90
33717;DHT22;20046;50.746;7.072;2022-10-01T15:12:20;21.70;78.00
33717;DHT22;20046;50.746;7.072;2022-10-01T15:14:52;21.70;78.10
33717;DHT22;20046;50.746;7.072;2022-10-01T15:17:25;21.70;78.70
33717;DHT22;20046;50.746;7.072;2022-10-01T15:19:54;21.60;80.10
33717;DHT22;20046;50.746;7.072;2022-10-01T15:22:23;21.30;81.40
33717;DHT22;20046;50.746;7.072;2022-10-01T15:24:52;21.00;82.90
33717;DHT22;20046;50.746;7.072;2022-10-01T15:27:19;20.80;84.20
33717;DHT22;20046;50.746;7.072;2022-10-01T15:29:49;20.70;84.70
33717;DHT22;20046;50.746;7.072;2022-10-01T15:32:18;20.60;84.50
33717;DHT22;20046;50.746;7.072;2022-10-01T15:34:51;20.40;85.50
33717;DHT22;20046;50.746;7.072;2022-10-01T15:37:28;20.20;86.00
33717;DHT22;20046;50.746;7.072;2022-10-01T15:39:56;20.00;86.70
33717;DHT22;20046;50.746;7.072;2022-10-01T15:42:30;19.80;87.50
33717;DHT22;20046;50.746;7.072;2022-10-01T15:47:34;19.50;89.50
33717;DHT22;20046;50.746;7.072;2022-10-01T15:55:23;19.40;90.60
33717;DHT22;20046;50.746;7.072;2022-10-01T15:58:11;19.20;90.30
33717;DHT22;20046;50.746;7.072;2022-10-01T16:05:55;18.80;91.10
33717;DHT22;20046;50.746;7.072;2022-10-01T16:08:27;18.60;91.40
33717;DHT22;20046;50.746;7.072;2022-10-01T16:13:36;18.30;92.30
33717;DHT22;20046;50.746;7.072;2022-10-01T16:16:28;18.20;92.50
33717;DHT22;20046;50.746;7.072;2022-10-01T16:18:59;18.00;92.90
33717;DHT22;20046;50.746;7.072;2022-10-01T16:22:11;17.90;93.40
33717;DHT22;20046;50.746;7.072;2022-10-01T16:24:48;17.70;94.20
33717;DHT22;20046;50.746;7.072;2022-10-01T16:27:18;17.50;95.00
33717;DHT22;20046;50.746;7.072;2022-10-01T16:32:19;17.30;96.30
33717;DHT22;20046;50.746;7.072;2022-10-01T16:34:44;17.30;96.70
33717;DHT22;20046;50.746;7.072;2022-10-01T16:37:10;17.20;97.20
33717;DHT22;20046;50.746;7.072;2022-10-01T16:39:36;17.10;97.60
33717;DHT22;20046;50.746;7.072;2022-10-01T16:42:02;17.10;98.40
33717;DHT22;20046;50.746;7.072;2022-10-01T16:44:28;17.00;98.60
33717;DHT22;20046;50.746;7.072;2022-10-01T16:46:54;16.80;99.40
33717;DHT22;20046;50.746;7.072;2022-10-01T16:49:21;16.80;99.90
33717;DHT22;20046;50.746;7.072;2022-10-01T16:51:52;16.70;99.90
33717;DHT22;20046;50.746;7.072;2022-10-01T16:54:24;16.70;99.90
33717;DHT22;20046;50.746;7.072;2022-10-01T16:56:51;16.60;99.90
33717;DHT22;20046;50.746;7.072;2022-10-01T16:59:18;16.50;99.90
33717;DHT22;20046;50.746;7.072;2022-10-01T17:01:48;16.40;99.90
33717;DHT22;20046;50.746;7.072;2022-10-01T17:04:15;16.40;99.90
33717;DHT22;20046;50.746;7.072;2022-10-01T17:06:42;16.30;99.90
33717;DHT22;20046;50.746;7.072;2022-10-01T17:09:08;16.30;99.90
33717;DHT22;20046;50.746;7.072;2022-10-01T17:11:34;16.20;99.90
33717;DHT22;20046;50.746;7.072;2022-10-01T17:14:00;16.10;99.90
33717;DHT22;20046;50.746;7.072;2022-10-01T17:16:31;16.00;99.90
33717;DHT22;20046;50.746;7.072;2022-10-01T17:18:56;15.90;99.90
33717;DHT22;20046;50.746;7.072;2022-10-01T17:21:22;15.90;99.90
33717;DHT22;20046;50.746;7.072;2022-10-01T17:23:48;15.90;99.90
33717;DHT22;20046;50.746;7.072;2022-10-01T17:26:13;15.80;99.90
33717;DHT22;20046;50.746;7.072;2022-10-01T17:28:39;15.70;99.90
33717;DHT22;20046;50.746;7.072;2022-10-01T17:31:06;15.70;99.90
33717;DHT22;20046;50.746;7.072;2022-10-01T17:33:32;15.60;99.90
33717;DHT22;20046;50.746;7.072;2022-10-01T17:35:58;15.50;99.90
33717;DHT22;20046;50.746;7.072;2022-10-01T17:38:23;15.40;99.90
33717;DHT22;20046;50.746;7.072;2022-10-01T17:40:50;15.40;99.90
33717;DHT22;20046;50.746;7.072;2022-10-01T17:43:17;15.30;99.90
33717;DHT22;20046;50.746;7.072;2022-10-01T17:45:43;15.30;99.90
33717;DHT22;20046;50.746;7.072;2022-10-01T17:48:12;15.20;99.90
33717;DHT22;20046;50.746;7.072;2022-10-01T17:50:38;15.20;99.90
33717;DHT22;20046;50.746;7.072;2022-10-01T17:53:08;15.30;99.90
33717;DHT22;20046;50.746;7.072;2022-10-01T17:55:38;15.30;99.90
33717;DHT22;20046;50.746;7.072;2022-10-01T17:58:04;15.30;99.90
33717;DHT22;20046;50.746;7.072;2022-10-01T18:00:31;15.30;99.90
33717;DHT22;20046;50.746;7.072;2022-10-01T18:02:57;15.30;99.90
33717;DHT22;20046;50.746;7.072;2022-10-01T18:05:25;15.30;99.90
33717;DHT22;20046;50.746;7.072;2022-10-01T18:07:51;15.30;99.90
33717;DHT22;20046;50.746;7.072;2022-10-01T18:10:16;15.20;99.90
33717;DHT22;20046;50.746;7.072;2022-10-01T18:12:42;15.20;99.90
33717;DHT22;20046;50.746;7.072;2022-10-01T18:15:08;15.10;99.90
33717;DHT22;20046;50.746;7.072;2022-10-01T18:17:35;15.00;99.90
33717;DHT22;20046;50.746;7.072;2022-10-01T18:20:03;14.90;99.90
33717;DHT22;20046;50.746;7.072;2022-10-01T18:22:29;14.90;99.90
33717;DHT22;20046;50.746;7.072;2022-10-01T18:24:55;14.80;99.90